Time;durP1;ratioP1;P1;durP2;ratioP2;P2;SDS_P1;SDS_P2;PMS_P1;PMS_P2;Temp;Humidity;BMP_temperature;BMP_pressure;BME280_temperature;BME280_humidity;BME280_pressure;Samples;Min_cycle;Max_cycle;Signal;HPM_P1;HPM_P2
2022/03/15 00:01:24;;;;;;;8.80;4.10;;;4.90;99.90;;;;;;5009301;28;20399;-72
2022/03/15 00:03:50;;;;;;;8.93;4.07;;;4.90;99.90;;;;;;5012309;28;20084;-72
2022/03/15 00:06:15;;;;;;;12.00;4.32;;;4.80;99.90;;;;;;5013719;28;20038;-72
2022/03/15 00:08:44;;;;;;;10.48;3.95;;;4.80;99.90;;;;;;4996455;28;20449;-72
2022/03/15 00:11:10;;;;;;;10.07;4.20;;;4.80;99.90;;;;;;5013468;28;20125;-72
2022/03/15 00:13:38;;;;;;;11.52;4.47;;;4.90;99.90;;;;;;5010575;28;20121;-72
2022/03/15 00:16:06;;;;;;;8.35;4.07;;;4.80;99.90;;;;;;5013367;28;20115;-72
2022/03/15 00:18:32;;;;;;;10.25;4.05;;;4.80;99.90;;;;;;5009192;28;20057;-73
2022/03/15 00:21:02;;;;;;;9.75;4.00;;;4.70;99.90;;;;;;4977541;28;20046;-72
2022/03/15 00:23:28;;;;;;;6.20;3.33;;;4.70;99.90;;;;;;5008501;28;20045;-72
2022/03/15 00:25:54;;;;;;;8.43;3.17;;;4.80;99.90;;;;;;5013021;28;20073;-73
2022/03/15 00:28:24;;;;;;;7.25;3.22;;;4.70;99.90;;;;;;5012198;28;20030;-72
2022/03/15 00:30:50;;;;;;;8.32;3.88;;;4.60;99.90;;;;;;4996803;28;20084;-73
2022/03/15 00:33:16;;;;;;;10.18;4.13;;;4.60;99.90;;;;;;4994981;28;20046;-72
2022/03/15 00:35:42;;;;;;;9.80;4.45;;;4.50;99.90;;;;;;5013309;28;20061;-72
2022/03/15 00:38:08;;;;;;;7.97;3.67;;;4.50;99.90;;;;;;4992350;28;20534;-72
2022/03/15 00:40:34;;;;;;;9.68;4.22;;;4.40;99.90;;;;;;5009412;28;20095;-72
2022/03/15 00:43:00;;;;;;;9.93;4.40;;;4.40;99.90;;;;;;4993258;28;20045;-72
2022/03/15 00:45:28;;;;;;;8.88;4.15;;;4.40;99.90;;;;;;4980980;28;20038;-72
2022/03/15 00:47:54;;;;;;;12.27;4.63;;;4.40;99.90;;;;;;4996364;28;20422;-73
2022/03/15 00:50:21;;;;;;;13.23;5.28;;;4.40;99.90;;;;;;5011049;28;20037;-72
2022/03/15 00:52:47;;;;;;;9.25;4.18;;;4.40;99.90;;;;;;5012730;28;20120;-72
2022/03/15 00:55:13;;;;;;;9.25;4.10;;;4.40;99.90;;;;;;4986005;28;20034;-73
2022/03/15 00:57:38;;;;;;;12.10;5.05;;;4.50;99.90;;;;;;5012592;28;20048;-73
2022/03/15 01:00:09;;;;;;;13.52;5.85;;;4.50;99.90;;;;;;5011605;28;20045;-72
2022/03/15 01:02:35;;;;;;;14.30;5.65;;;4.50;99.90;;;;;;5029020;28;20176;-72
2022/03/15 01:05:01;;;;;;;13.52;5.78;;;4.50;99.90;;;;;;4991656;28;20121;-73
2022/03/15 01:07:27;;;;;;;11.15;5.40;;;4.50;99.90;;;;;;4992815;28;20041;-73
2022/03/15 01:09:52;;;;;;;11.38;5.65;;;4.50;99.90;;;;;;4999111;28;20034;-72
2022/03/15 01:12:18;;;;;;;11.48;5.60;;;4.50;99.90;;;;;;4996167;28;20422;-73
2022/03/15 01:14:44;;;;;;;10.73;6.32;;;4.40;99.90;;;;;;5011286;28;20049;-72
2022/03/15 01:17:10;;;;;;;12.85;5.68;;;4.50;99.90;;;;;;5012538;28;20041;-72
2022/03/15 01:19:36;;;;;;;12.02;6.25;;;4.50;99.90;;;;;;5011355;28;20048;-72
2022/03/15 01:22:02;;;;;;;14.55;6.18;;;4.50;99.90;;;;;;5012376;28;20049;-73
2022/03/15 01:24:28;;;;;;;12.48;5.70;;;4.50;99.90;;;;;;5011477;28;20517;-72
2022/03/15 01:26:54;;;;;;;11.02;5.53;;;4.50;99.90;;;;;;5011404;28;20124;-73
2022/03/15 01:29:21;;;;;;;12.88;5.88;;;4.40;99.90;;;;;;5011387;28;20040;-72
2022/03/15 01:31:47;;;;;;;11.82;6.53;;;4.50;99.90;;;;;;4995774;28;20565;-73
2022/03/15 01:34:13;;;;;;;12.63;5.85;;;4.50;99.90;;;;;;5011366;28;20132;-72
2022/03/15 01:36:38;;;;;;;14.23;5.97;;;4.50;99.90;;;;;;5011711;28;20080;-73
2022/03/15 01:39:05;;;;;;;11.07;5.70;;;4.50;99.90;;;;;;5012289;28;20100;-73
2022/03/15 01:41:36;;;;;;;13.13;6.63;;;4.50;99.90;;;;;;5011076;28;20108;-73
2022/03/15 01:44:03;;;;;;;13.30;6.20;;;4.50;99.90;;;;;;4995744;28;20045;-73
2022/03/15 01:46:29;;;;;;;13.77;6.18;;;4.50;99.90;;;;;;4994494;28;20038;-72
2022/03/15 01:48:55;;;;;;;14.32;6.82;;;4.50;99.90;;;;;;4994729;28;20034;-72
2022/03/15 01:51:21;;;;;;;13.27;6.68;;;4.50;99.90;;;;;;4994733;28;20051;-72
2022/03/15 01:53:47;;;;;;;12.45;6.47;;;4.40;99.90;;;;;;4994713;28;20081;-73
2022/03/15 01:56:12;;;;;;;13.15;6.20;;;4.40;99.90;;;;;;4995040;28;20468;-73
2022/03/15 01:58:38;;;;;;;12.95;6.15;;;4.40;99.90;;;;;;5011507;28;20052;-73
2022/03/15 02:01:03;;;;;;;11.65;6.15;;;4.30;99.90;;;;;;5014844;28;20045;-72
2022/03/15 02:03:31;;;;;;;13.30;6.47;;;4.30;99.90;;;;;;4998366;28;20045;-73
2022/03/15 02:05:56;;;;;;;11.32;5.95;;;4.30;99.90;;;;;;5015685;28;20398;-73
2022/03/15 02:08:22;;;;;;;11.95;6.43;;;4.30;99.90;;;;;;5014660;28;20042;-72
2022/03/15 02:10:47;;;;;;;13.25;6.80;;;4.30;99.90;;;;;;5014978;28;20038;-73
2022/03/15 02:13:13;;;;;;;13.18;6.80;;;4.30;99.90;;;;;;5014689;28;20040;-73
2022/03/15 02:15:39;;;;;;;14.68;6.80;;;4.20;99.90;;;;;;5015679;28;20044;-73
2022/03/15 02:18:05;;;;;;;12.73;6.68;;;4.20;99.90;;;;;;5018018;28;20503;-72
2022/03/15 02:20:31;;;;;;;12.48;7.28;;;4.20;99.90;;;;;;5005406;28;20041;-73
2022/03/15 02:22:57;;;;;;;14.02;6.97;;;4.20;99.90;;;;;;5014677;28;20057;-72
2022/03/15 02:25:23;;;;;;;13.57;6.78;;;4.20;99.90;;;;;;5014406;28;20038;-73
2022/03/15 02:27:49;;;;;;;15.18;6.93;;;4.20;99.90;;;;;;5013573;28;20042;-73
2022/03/15 02:30:14;;;;;;;13.15;6.65;;;4.30;99.90;;;;;;4998365;28;20044;-73
2022/03/15 02:32:40;;;;;;;15.23;6.88;;;4.30;99.90;;;;;;4999009;28;20042;-73
2022/03/15 02:35:07;;;;;;;11.88;6.25;;;4.20;99.90;;;;;;5012514;28;20046;-73
2022/03/15 02:37:32;;;;;;;12.05;6.53;;;4.20;99.90;;;;;;4995646;28;20049;-73
2022/03/15 02:39:58;;;;;;;14.10;5.78;;;4.30;99.90;;;;;;4999899;28;20445;-72
2022/03/15 02:42:24;;;;;;;11.45;5.35;;;4.30;99.90;;;;;;4998859;28;20482;-73
2022/03/15 02:44:49;;;;;;;12.35;5.85;;;4.40;99.90;;;;;;5014029;28;20041;-73
2022/03/15 02:47:15;;;;;;;15.15;5.68;;;4.40;99.90;;;;;;4998073;28;20041;-73
2022/03/15 02:49:40;;;;;;;12.27;5.90;;;4.40;99.90;;;;;;4997728;28;20077;-73
2022/03/15 02:52:06;;;;;;;10.73;6.30;;;4.30;99.90;;;;;;5014949;28;20041;-73
2022/03/15 02:54:32;;;;;;;13.02;7.22;;;4.40;99.90;;;;;;4997718;28;20038;-73
2022/03/15 02:56:58;;;;;;;13.15;6.55;;;4.40;99.90;;;;;;5012938;28;20124;-73
2022/03/15 02:59:23;;;;;;;12.00;6.40;;;4.40;99.90;;;;;;5014799;28;20041;-73
2022/03/15 03:01:49;;;;;;;10.73;6.47;;;4.40;99.90;;;;;;4995397;28;20041;-73
2022/03/15 03:04:15;;;;;;;14.50;7.10;;;4.50;99.90;;;;;;4986928;28;20129;-73
2022/03/15 03:06:42;;;;;;;15.52;7.80;;;4.60;99.90;;;;;;4997546;28;20406;-73
2022/03/15 03:09:10;;;;;;;11.25;7.30;;;4.60;99.90;;;;;;5014366;28;20034;-73
2022/03/15 03:11:36;;;;;;;14.43;7.47;;;4.70;99.90;;;;;;4996506;28;20034;-73
2022/03/15 03:14:04;;;;;;;14.63;8.35;;;4.70;99.90;;;;;;5013460;28;20108;-73
2022/03/15 03:16:30;;;;;;;13.52;7.63;;;4.70;99.90;;;;;;5014529;28;20046;-73
2022/03/15 03:18:58;;;;;;;14.60;7.38;;;4.70;99.90;;;;;;5013282;28;20052;-73
2022/03/15 03:21:28;;;;;;;15.52;8.13;;;4.70;99.90;;;;;;4997417;28;20069;-73
2022/03/15 03:23:55;;;;;;;14.82;8.10;;;4.70;99.90;;;;;;4996883;28;20030;-73
2022/03/15 03:26:24;;;;;;;14.93;7.70;;;4.60;99.90;;;;;;5000166;28;20038;-73
2022/03/15 03:28:51;;;;;;;14.55;8.25;;;4.50;99.90;;;;;;5010552;28;20537;-73
2022/03/15 03:31:16;;;;;;;11.15;6.82;;;4.50;99.90;;;;;;4993131;28;20038;-73
2022/03/15 03:33:43;;;;;;;13.73;7.18;;;4.50;99.90;;;;;;5002058;28;20041;-73
2022/03/15 03:36:10;;;;;;;11.73;6.97;;;4.60;99.90;;;;;;5014397;28;20038;-73
2022/03/15 03:38:36;;;;;;;12.82;7.15;;;4.50;99.90;;;;;;4997183;28;20088;-72
2022/03/15 03:41:04;;;;;;;12.43;6.72;;;4.50;99.90;;;;;;5012859;28;20058;-73
2022/03/15 03:43:31;;;;;;;12.80;6.95;;;4.50;99.90;;;;;;5012998;28;20083;-73
2022/03/15 03:45:57;;;;;;;12.05;6.80;;;4.50;99.90;;;;;;5013771;28;20045;-73
2022/03/15 03:48:24;;;;;;;12.93;6.80;;;4.50;99.90;;;;;;5013318;28;20095;-73
2022/03/15 03:50:50;;;;;;;12.35;6.20;;;4.50;99.90;;;;;;5012882;28;20525;-73
2022/03/15 03:53:17;;;;;;;12.70;7.35;;;4.50;99.90;;;;;;4996719;28;20065;-73
2022/03/15 03:55:44;;;;;;;12.68;6.78;;;4.40;99.90;;;;;;5012792;28;20046;-73
2022/03/15 03:58:10;;;;;;;12.02;6.82;;;4.40;99.90;;;;;;4996429;28;20053;-73
2022/03/15 04:00:36;;;;;;;12.73;6.75;;;4.40;99.90;;;;;;5012519;28;20103;-73
2022/03/15 04:03:03;;;;;;;11.60;5.70;;;4.40;99.90;;;;;;5013401;28;20077;-73
2022/03/15 04:05:35;;;;;;;11.15;6.00;;;4.50;99.90;;;;;;5026640;28;20444;-73
2022/03/15 04:08:01;;;;;;;;;;;4.50;99.90;;;;;;5010746;28;20483;-73
2022/03/15 04:10:29;;;;;;;9.90;5.40;;;4.50;99.90;;;;;;5002925;28;19918;-73
2022/03/15 04:12:55;;;;;;;10.82;5.97;;;4.60;99.90;;;;;;4977878;28;20518;-73
2022/03/15 04:15:22;;;;;;;13.57;7.10;;;4.70;99.90;;;;;;4994596;28;20042;-73
2022/03/15 04:17:48;;;;;;;14.32;6.72;;;4.70;99.90;;;;;;5013453;28;20084;-73
2022/03/15 04:20:14;;;;;;;13.82;7.85;;;4.70;99.90;;;;;;5009948;28;20045;-73
2022/03/15 04:22:40;;;;;;;12.30;7.55;;;4.60;99.90;;;;;;4993475;28;20042;-73
2022/03/15 04:25:06;;;;;;;12.20;6.22;;;4.50;99.90;;;;;;5003546;28;20545;-73
2022/03/15 04:27:32;;;;;;;11.82;5.80;;;4.60;99.90;;;;;;4977383;28;20081;-73
2022/03/15 04:29:57;;;;;;;14.70;6.85;;;4.60;99.90;;;;;;5004632;28;20030;-73
2022/03/15 04:32:23;;;;;;;15.23;6.45;;;4.70;99.90;;;;;;5013097;28;20041;-73
2022/03/15 04:34:49;;;;;;;13.00;6.72;;;4.80;99.90;;;;;;5012047;28;20465;-73
2022/03/15 04:37:14;;;;;;;12.98;7.00;;;4.80;99.90;;;;;;4996941;28;20048;-73
2022/03/15 04:39:40;;;;;;;12.73;6.55;;;4.80;99.90;;;;;;5011884;28;20057;-73
2022/03/15 04:42:07;;;;;;;12.73;7.05;;;4.80;99.90;;;;;;4995100;28;20038;-73
2022/03/15 04:44:33;;;;;;;13.57;7.15;;;4.80;99.90;;;;;;4991177;28;20034;-73
2022/03/15 04:46:59;;;;;;;11.75;6.65;;;4.90;99.90;;;;;;4990608;28;20061;-73
2022/03/15 04:49:24;;;;;;;16.05;7.35;;;4.90;99.90;;;;;;4976658;28;20058;-73
2022/03/15 04:51:50;;;;;;;13.00;7.22;;;5.00;99.90;;;;;;5010545;28;20037;-73
2022/03/15 04:54:16;;;;;;;15.27;7.90;;;5.10;99.90;;;;;;4996076;28;20030;-73
2022/03/15 04:56:42;;;;;;;19.05;8.52;;;5.20;99.90;;;;;;5011984;28;20464;-73
2022/03/15 04:59:08;;;;;;;16.08;7.97;;;5.10;99.90;;;;;;4995923;28;20038;-73
2022/03/15 05:01:34;;;;;;;15.68;7.93;;;4.90;99.90;;;;;;4995599;28;20045;-73
2022/03/15 05:04:00;;;;;;;12.38;6.45;;;4.90;99.90;;;;;;5012559;28;20069;-73
2022/03/15 05:06:26;;;;;;;11.68;6.50;;;4.90;99.90;;;;;;5027180;28;20103;-73
2022/03/15 05:08:51;;;;;;;9.80;6.07;;;4.80;99.90;;;;;;4995960;28;20499;-73
2022/03/15 05:11:18;;;;;;;11.50;6.93;;;4.90;99.90;;;;;;4984121;28;20081;-73
2022/03/15 05:13:47;;;;;;;12.02;6.53;;;4.80;99.90;;;;;;4997330;28;20069;-73
2022/03/15 05:16:18;;;;;;;13.88;7.22;;;4.80;99.90;;;;;;4979571;28;20046;-73
2022/03/15 05:18:45;;;;;;;11.98;6.53;;;4.70;99.90;;;;;;4985682;28;20052;-73
2022/03/15 05:21:16;;;;;;;11.82;7.13;;;4.70;99.90;;;;;;4996024;28;20048;-73
2022/03/15 05:23:47;;;;;;;10.95;6.75;;;4.70;99.90;;;;;;4986918;28;20054;-73
2022/03/15 05:26:14;;;;;;;12.13;6.50;;;4.60;99.90;;;;;;5000000;28;20050;-73
2022/03/15 05:28:40;;;;;;;12.52;7.03;;;4.60;99.90;;;;;;4974584;28;20041;-73
2022/03/15 05:31:06;;;;;;;12.95;6.82;;;4.60;99.90;;;;;;4989163;28;20115;-73
2022/03/15 05:33:32;;;;;;;15.15;7.63;;;4.70;99.90;;;;;;4974894;28;20030;-73
2022/03/15 05:35:58;;;;;;;12.98;7.25;;;4.70;99.90;;;;;;4972870;28;20085;-73
2022/03/15 05:38:24;;;;;;;11.88;6.90;;;4.70;99.90;;;;;;4974541;28;20124;-73
2022/03/15 05:40:50;;;;;;;14.07;8.05;;;4.70;99.90;;;;;;4986496;28;20062;-73
2022/03/15 05:43:15;;;;;;;18.15;8.70;;;4.70;99.90;;;;;;4989697;28;20130;-73
2022/03/15 05:45:41;;;;;;;17.60;8.32;;;4.70;99.90;;;;;;4994951;28;20121;-73
2022/03/15 05:48:07;;;;;;;14.45;7.88;;;4.70;99.90;;;;;;5002661;28;20042;-73
2022/03/15 05:50:33;;;;;;;15.32;8.32;;;4.70;99.90;;;;;;5005114;28;20052;-73
2022/03/15 05:53:04;;;;;;;15.00;7.90;;;4.70;99.90;;;;;;4973315;28;20385;-74
2022/03/15 05:55:31;;;;;;;13.73;7.72;;;4.70;99.90;;;;;;4990172;28;20046;-73
2022/03/15 05:57:57;;;;;;;15.27;8.35;;;4.70;99.90;;;;;;4983123;28;20046;-73
2022/03/15 06:00:23;;;;;;;15.20;8.57;;;4.70;99.90;;;;;;5008438;28;20045;-73
2022/03/15 06:02:50;;;;;;;19.67;10.55;;;4.70;99.90;;;;;;5009548;28;20045;-73
2022/03/15 06:05:16;;;;;;;17.75;9.98;;;4.70;99.90;;;;;;5011755;28;20045;-73
2022/03/15 06:07:52;;;;;;;17.30;10.35;;;4.70;99.90;;;;;;4983467;28;20039;-73
2022/03/15 06:10:23;;;;;;;17.42;9.23;;;4.70;99.90;;;;;;4992810;28;20087;-73
2022/03/15 06:12:50;;;;;;;18.15;9.98;;;4.70;99.90;;;;;;4989064;28;20549;-73
2022/03/15 06:15:17;;;;;;;14.68;8.80;;;4.70;99.90;;;;;;4984699;28;20096;-73
2022/03/15 06:17:56;;;;;;;14.75;8.85;;;4.70;99.90;;;;;;5004079;28;20094;-73
2022/03/15 06:20:23;;;;;;;15.85;8.55;;;4.70;99.90;;;;;;4993132;28;20719;-73
2022/03/15 06:22:49;;;;;;;17.05;9.05;;;4.80;99.90;;;;;;4984786;28;20469;-73
2022/03/15 06:25:15;;;;;;;19.98;8.90;;;4.80;99.90;;;;;;4985132;28;20584;-73
2022/03/15 06:27:42;;;;;;;17.55;9.40;;;4.80;99.90;;;;;;4987411;28;20042;-73
2022/03/15 06:30:08;;;;;;;17.15;9.85;;;4.80;99.90;;;;;;4993109;28;20038;-73
2022/03/15 06:32:35;;;;;;;16.25;9.68;;;4.80;99.90;;;;;;4984693;28;20406;-73
2022/03/15 06:35:05;;;;;;;14.35;8.43;;;4.90;99.90;;;;;;4986040;28;20221;-73
2022/03/15 06:37:31;;;;;;;14.15;7.97;;;4.90;99.90;;;;;;5002866;28;20756;-73
2022/03/15 06:39:57;;;;;;;14.13;8.10;;;5.00;99.90;;;;;;4984436;28;20057;-73
2022/03/15 06:42:23;;;;;;;13.05;7.13;;;5.00;99.90;;;;;;4969509;28;20050;-73
2022/03/15 06:44:49;;;;;;;12.73;7.47;;;5.00;99.90;;;;;;4977886;28;20088;-73
2022/03/15 06:47:15;;;;;;;15.20;7.63;;;5.10;99.90;;;;;;5013844;28;20069;-73
2022/03/15 06:49:41;;;;;;;15.65;7.88;;;5.10;99.90;;;;;;5009389;28;20287;-73
2022/03/15 06:52:08;;;;;;;17.02;8.38;;;5.10;99.90;;;;;;4994205;28;20037;-74
2022/03/15 06:54:33;;;;;;;15.02;8.00;;;5.20;99.90;;;;;;4984864;28;20038;-73
2022/03/15 06:56:59;;;;;;;15.10;8.80;;;5.20;99.90;;;;;;4973304;28;20046;-73
2022/03/15 06:59:24;;;;;;;15.20;8.70;;;5.20;99.90;;;;;;4973715;28;20042;-73
2022/03/15 07:01:50;;;;;;;19.05;9.98;;;5.20;99.90;;;;;;4982701;28;20046;-74
2022/03/15 07:04:17;;;;;;;17.75;9.77;;;5.20;99.90;;;;;;4991227;28;20050;-73
2022/03/15 07:06:43;;;;;;;15.55;9.45;;;5.20;99.90;;;;;;5024688;28;20465;-74
2022/03/15 07:09:09;;;;;;;16.48;9.82;;;5.20;99.90;;;;;;4993006;28;20371;-73
2022/03/15 07:11:35;;;;;;;16.92;10.05;;;5.20;99.90;;;;;;5018362;28;20034;-74
2022/03/15 07:14:03;;;;;;;16.55;11.00;;;5.20;99.90;;;;;;4987712;28;20128;-73
2022/03/15 07:16:28;;;;;;;17.15;9.73;;;5.30;99.90;;;;;;4989661;28;20555;-73
2022/03/15 07:18:55;;;;;;;19.50;10.63;;;5.20;99.90;;;;;;4992563;28;20046;-73
2022/03/15 07:21:20;;;;;;;21.48;12.80;;;5.30;99.90;;;;;;4991361;28;20548;-73
2022/03/15 07:23:46;;;;;;;21.05;12.02;;;5.30;99.90;;;;;;4988443;28;20081;-73
2022/03/15 07:26:12;;;;;;;21.55;11.95;;;5.30;99.90;;;;;;4986245;28;20078;-73
2022/03/15 07:28:37;;;;;;;22.85;13.10;;;5.40;99.90;;;;;;5021014;28;20041;-73
2022/03/15 07:31:04;;;;;;;23.67;13.10;;;5.40;99.90;;;;;;5007243;28;20558;-74
2022/03/15 07:33:30;;;;;;;21.27;12.43;;;5.40;99.90;;;;;;5013673;28;20091;-74
2022/03/15 07:35:55;;;;;;;24.98;13.10;;;5.50;99.90;;;;;;5014314;28;20494;-74
2022/03/15 07:38:21;;;;;;;19.92;13.23;;;5.50;99.90;;;;;;5012989;28;20149;-73
2022/03/15 07:40:48;;;;;;;20.92;13.13;;;5.50;99.90;;;;;;5013965;28;20045;-74
2022/03/15 07:43:16;;;;;;;24.73;12.98;;;5.60;99.90;;;;;;4996940;28;20060;-74
2022/03/15 07:45:41;;;;;;;24.48;14.85;;;5.70;99.90;;;;;;5011963;28;20049;-73
2022/03/15 07:48:07;;;;;;;22.45;12.52;;;5.80;99.90;;;;;;5013949;28;20104;-73
2022/03/15 07:50:34;;;;;;;22.48;14.10;;;5.70;99.90;;;;;;5012861;28;20034;-73
2022/03/15 07:53:00;;;;;;;24.08;13.30;;;5.90;99.90;;;;;;5010196;28;20113;-73
2022/03/15 07:55:26;;;;;;;24.50;13.00;;;5.90;99.90;;;;;;5011776;28;20121;-73
2022/03/15 07:57:51;;;;;;;21.90;13.75;;;5.90;99.90;;;;;;5013737;28;20050;-73
2022/03/15 08:00:17;;;;;;;26.17;15.20;;;5.90;99.90;;;;;;5012860;28;20038;-74
2022/03/15 08:02:42;;;;;;;25.55;15.30;;;6.00;99.90;;;;;;5013591;28;20483;-73
2022/03/15 08:05:09;;;;;;;27.38;15.98;;;6.10;99.90;;;;;;5011200;28;20050;-73
2022/03/15 08:07:36;;;;;;;26.15;15.43;;;6.20;99.90;;;;;;5013610;28;20038;-73
2022/03/15 08:10:07;;;;;;;26.38;15.98;;;6.20;99.90;;;;;;5012636;28;20034;-74
2022/03/15 08:12:33;;;;;;;27.58;15.02;;;6.20;99.90;;;;;;5013458;28;20088;-73
2022/03/15 08:14:59;;;;;;;28.20;16.80;;;6.20;99.90;;;;;;5012308;28;20087;-74
2022/03/15 08:17:25;;;;;;;27.38;16.08;;;6.20;99.90;;;;;;5013397;28;20050;-74
2022/03/15 08:19:51;;;;;;;30.38;17.58;;;6.20;99.90;;;;;;5011452;28;20509;-74
2022/03/15 08:22:17;;;;;;;30.38;18.58;;;6.30;99.90;;;;;;5013260;28;20129;-74
2022/03/15 08:24:42;;;;;;;28.10;18.00;;;6.30;99.90;;;;;;5010982;28;20486;-73
2022/03/15 08:27:08;;;;;;;29.60;18.83;;;6.30;99.90;;;;;;4996843;28;20132;-74
2022/03/15 08:29:34;;;;;;;29.60;18.92;;;6.30;99.90;;;;;;5012253;28;20491;-74
2022/03/15 08:32:00;;;;;;;29.30;17.85;;;6.40;99.90;;;;;;5013044;28;20064;-74
2022/03/15 08:34:25;;;;;;;32.15;19.33;;;6.40;99.90;;;;;;5012410;28;20045;-74
2022/03/15 08:36:53;;;;;;;28.73;17.95;;;6.40;99.90;;;;;;5013067;28;20037;-74
2022/03/15 08:39:21;;;;;;;28.13;18.02;;;6.50;99.90;;;;;;4994868;28;20034;-73
2022/03/15 08:41:51;;;;;;;30.10;19.15;;;6.60;99.90;;;;;;5012583;28;20046;-74
2022/03/15 08:44:18;;;;;;;32.55;20.88;;;6.60;99.90;;;;;;4996080;28;20045;-73
2022/03/15 08:46:45;;;;;;;32.65;20.08;;;6.60;99.90;;;;;;5013148;28;20398;-74
2022/03/15 08:49:11;;;;;;;30.02;18.95;;;6.60;99.90;;;;;;5012145;28;20087;-74
2022/03/15 08:51:36;;;;;;;31.85;20.98;;;6.60;99.90;;;;;;5012794;28;20078;-73
2022/03/15 08:54:02;;;;;;;36.67;22.73;;;6.70;99.90;;;;;;5010756;28;20034;-74
2022/03/15 08:56:28;;;;;;;31.25;19.40;;;6.70;99.90;;;;;;4995464;28;20121;-75
2022/03/15 08:58:53;;;;;;;30.40;18.63;;;6.80;99.90;;;;;;5011723;28;20475;-75
2022/03/15 09:01:19;;;;;;;30.20;20.30;;;6.90;99.90;;;;;;5006488;28;20056;-75
2022/03/15 09:03:45;;;;;;;33.75;21.30;;;7.10;99.90;;;;;;4994275;28;20037;-75
2022/03/15 09:06:10;;;;;;;36.08;22.08;;;7.40;99.90;;;;;;5010150;28;20038;-75
2022/03/15 09:08:36;;;;;;;37.55;23.02;;;7.70;99.90;;;;;;5008371;28;20037;-75
2022/03/15 09:11:03;;;;;;;32.80;20.92;;;7.80;99.90;;;;;;5009577;28;20040;-74
2022/03/15 09:13:28;;;;;;;29.95;21.88;;;8.10;99.90;;;;;;4994487;28;20033;-74
2022/03/15 09:15:54;;;;;;;34.80;22.50;;;8.20;99.90;;;;;;5003498;28;20087;-75
2022/03/15 09:18:20;;;;;;;33.38;21.15;;;8.30;99.90;;;;;;5011559;28;20471;-75
2022/03/15 09:20:46;;;;;;;30.35;20.52;;;8.30;99.90;;;;;;5008304;28;20600;-74
2022/03/15 09:23:12;;;;;;;29.33;19.63;;;8.40;99.90;;;;;;5012255;28;20073;-74
2022/03/15 09:25:38;;;;;;;27.98;20.20;;;8.50;99.90;;;;;;5011951;28;20073;-75
2022/03/15 09:28:04;;;;;;;32.75;21.55;;;8.50;99.90;;;;;;4977858;28;20069;-75
2022/03/15 09:30:30;;;;;;;32.15;21.58;;;8.30;99.90;;;;;;4987009;28;20042;-74
2022/03/15 09:32:57;;;;;;;30.88;20.73;;;8.40;99.90;;;;;;4984329;28;20049;-75
2022/03/15 09:35:24;;;;;;;30.25;20.60;;;8.40;99.90;;;;;;4992522;28;20049;-75
2022/03/15 09:37:50;;;;;;;30.08;21.50;;;8.60;99.90;;;;;;4987067;28;20135;-75
2022/03/15 09:40:25;;;;;;;33.92;21.77;;;8.70;99.90;;;;;;4977833;28;20050;-74
2022/03/15 09:42:56;;;;;;;31.90;20.33;;;8.70;99.90;;;;;;4983628;28;20050;-74
2022/03/15 09:45:23;;;;;;;30.65;20.52;;;8.80;99.90;;;;;;4988731;28;20197;-75
2022/03/15 09:47:54;;;;;;;31.48;20.45;;;8.90;99.90;;;;;;4987623;28;20038;-75
2022/03/15 09:50:20;;;;;;;30.63;20.15;;;9.00;99.90;;;;;;4989709;28;20044;-75
2022/03/15 09:52:47;;;;;;;28.17;19.60;;;9.10;99.90;;;;;;4986684;28;20044;-75
2022/03/15 09:55:13;;;;;;;30.02;19.98;;;9.10;99.90;;;;;;4991353;28;20042;-75
2022/03/15 09:57:40;;;;;;;24.77;19.38;;;9.10;99.90;;;;;;4985123;28;20104;-74
2022/03/15 10:00:06;;;;;;;26.42;19.02;;;9.10;99.90;;;;;;4983236;28;20041;-75
2022/03/15 10:02:33;;;;;;;30.52;19.70;;;9.10;99.90;;;;;;5004232;28;20502;-75
2022/03/15 10:04:59;;;;;;;27.98;18.58;;;9.20;99.90;;;;;;4990074;28;20034;-75
2022/03/15 10:07:24;;;;;;;25.98;18.25;;;9.30;99.90;;;;;;4982687;28;20053;-74
2022/03/15 10:09:52;;;;;;;29.48;19.92;;;9.40;99.90;;;;;;4993239;28;20040;-74
2022/03/15 10:12:18;;;;;;;27.52;18.23;;;9.50;99.90;;;;;;5011760;28;20038;-74
2022/03/15 10:14:45;;;;;;;31.23;20.73;;;9.40;99.90;;;;;;5011304;28;20053;-74
2022/03/15 10:17:14;;;;;;;26.38;18.98;;;9.40;99.90;;;;;;5009155;28;20084;-75
2022/03/15 10:19:53;;;;;;;29.85;18.80;;;9.40;99.90;;;;;;5015301;28;20037;-74
2022/03/15 10:22:25;;;;;;;25.27;18.20;;;9.50;99.90;;;;;;5016162;28;20581;-74
2022/03/15 10:24:51;;;;;;;28.60;19.48;;;9.40;99.90;;;;;;5009545;28;20050;-74
2022/03/15 10:27:17;;;;;;;26.73;18.73;;;9.40;99.90;;;;;;5007341;28;20498;-74
2022/03/15 10:29:43;;;;;;;27.25;19.00;;;9.50;99.90;;;;;;5014934;28;20038;-74
2022/03/15 10:32:09;;;;;;;27.23;18.00;;;9.50;99.90;;;;;;4995802;28;20038;-74
2022/03/15 10:34:36;;;;;;;25.40;18.08;;;9.40;99.90;;;;;;4993793;28;20076;-74
2022/03/15 10:37:03;;;;;;;29.48;20.38;;;9.40;99.90;;;;;;4979188;28;20089;-74
2022/03/15 10:39:28;;;;;;;25.85;17.48;;;9.40;99.90;;;;;;4997756;28;20064;-74
2022/03/15 10:41:57;;;;;;;25.95;16.75;;;9.50;99.90;;;;;;5015208;28;20566;-74
2022/03/15 10:44:52;;;;;;;25.00;17.58;;;9.70;99.90;;;;;;5013533;28;20060;-74
2022/03/15 10:47:18;;;;;;;25.45;17.33;;;9.60;99.90;;;;;;4994238;28;20045;-74
2022/03/15 10:49:55;;;;;;;25.23;17.42;;;9.70;99.90;;;;;;5010408;28;20126;-74
2022/03/15 10:52:40;;;;;;;25.23;17.70;;;9.70;99.90;;;;;;4997677;28;20124;-74
2022/03/15 10:55:24;;;;;;;24.60;16.27;;;9.80;99.90;;;;;;4996960;28;20048;-74
2022/03/15 10:57:55;;;;;;;26.83;17.08;;;9.90;99.90;;;;;;5014493;28;20045;-74
2022/03/15 11:00:26;;;;;;;26.50;17.67;;;9.90;99.90;;;;;;5012301;28;20046;-74
2022/03/15 11:02:53;;;;;;;26.13;18.13;;;9.80;99.90;;;;;;4995648;28;20096;-74
2022/03/15 11:05:33;;;;;;;25.13;17.80;;;9.80;99.90;;;;;;4996555;28;20450;-74
2022/03/15 11:08:07;;;;;;;25.85;17.02;;;9.90;99.90;;;;;;4994862;28;20368;-74
2022/03/15 11:10:34;;;;;;;23.83;16.40;;;10.00;99.90;;;;;;5007963;28;20068;-74
2022/03/15 11:13:06;;;;;;;26.40;18.80;;;9.90;99.90;;;;;;5003113;28;20057;-74
2022/03/15 11:15:36;;;;;;;24.92;16.52;;;9.80;99.90;;;;;;4997916;28;20092;-74
2022/03/15 11:18:04;;;;;;;24.83;17.98;;;9.90;99.90;;;;;;5013361;28;20044;-74
2022/03/15 11:20:35;;;;;;;24.65;17.63;;;9.90;99.90;;;;;;4997056;28;20073;-74
2022/03/15 11:23:02;;;;;;;25.97;18.63;;;10.00;99.90;;;;;;5014373;28;20116;-74
2022/03/15 11:25:42;;;;;;;28.33;19.05;;;10.00;99.90;;;;;;5013108;28;20038;-74
2022/03/15 11:28:12;;;;;;;25.35;18.05;;;9.90;99.90;;;;;;5013516;28;20065;-74
2022/03/15 11:30:39;;;;;;;24.73;18.77;;;10.00;99.90;;;;;;5011534;28;20076;-74
2022/03/15 11:33:05;;;;;;;28.00;21.33;;;9.90;99.90;;;;;;5024058;28;20069;-74
2022/03/15 11:35:33;;;;;;;25.42;19.00;;;9.80;99.90;;;;;;4995875;28;20050;-74
2022/03/15 11:38:00;;;;;;;24.40;17.75;;;9.80;99.90;;;;;;5024112;28;20042;-74
2022/03/15 11:40:27;;;;;;;27.05;19.08;;;9.90;99.90;;;;;;4994336;28;20080;-74
2022/03/15 11:43:18;;;;;;;24.58;17.67;;;9.90;99.90;;;;;;5009934;28;20038;-74
2022/03/15 11:45:54;;;;;;;24.40;15.60;;;10.10;99.90;;;;;;5015516;28;20499;-74
2022/03/15 11:48:40;;;;;;;22.80;15.32;;;10.10;99.90;;;;;;5010515;28;20042;-74
2022/03/15 11:51:19;;;;;;;29.25;16.90;;;10.30;99.90;;;;;;4990613;28;20391;-74
2022/03/15 11:54:08;;;;;;;22.88;15.15;;;10.30;99.90;;;;;;4993772;28;20041;-74
2022/03/15 11:56:48;;;;;;;25.38;16.67;;;10.40;99.90;;;;;;5012524;28;20498;-74
2022/03/15 11:59:14;;;;;;;21.52;14.73;;;10.30;99.90;;;;;;4997022;28;20521;-74
2022/03/15 12:01:52;;;;;;;24.02;15.70;;;10.40;99.90;;;;;;5012610;28;20045;-74
2022/03/15 12:04:23;;;;;;;26.55;18.30;;;10.40;99.90;;;;;;4997250;28;20052;-74
2022/03/15 12:06:56;;;;;;;23.35;17.58;;;10.40;99.90;;;;;;5012054;28;20399;-74
2022/03/15 12:09:30;;;;;;;24.30;16.60;;;10.50;99.90;;;;;;4989805;28;20394;-74
2022/03/15 12:12:05;;;;;;;25.17;16.38;;;10.40;99.90;;;;;;5008338;28;20132;-74
2022/03/15 12:14:45;;;;;;;22.55;16.88;;;10.50;99.90;;;;;;5011450;28;20041;-74
2022/03/15 12:17:12;;;;;;;26.65;16.48;;;10.50;99.90;;;;;;5003178;28;20041;-74
2022/03/15 12:19:49;;;;;;;25.63;16.52;;;10.60;99.90;;;;;;5013665;28;20049;-74
2022/03/15 12:22:36;;;;;;;21.25;15.20;;;10.50;99.90;;;;;;4992504;28;20485;-74
2022/03/15 12:25:02;;;;;;;22.48;15.70;;;10.60;99.90;;;;;;5001110;28;20046;-74
2022/03/15 12:27:28;;;;;;;22.65;15.10;;;10.60;99.90;;;;;;5012871;28;20041;-74
2022/03/15 12:29:58;;;;;;;21.48;14.70;;;10.60;99.90;;;;;;4994459;28;20065;-74
2022/03/15 12:32:26;;;;;;;22.52;15.43;;;10.80;99.90;;;;;;4996263;28;20406;-74
2022/03/15 12:34:55;;;;;;;20.90;14.25;;;10.80;99.90;;;;;;5011242;28;20052;-74
2022/03/15 12:37:49;;;;;;;21.38;14.38;;;10.90;99.90;;;;;;4996871;28;20412;-74
2022/03/15 12:40:15;;;;;;;23.38;14.93;;;10.90;99.90;;;;;;5008020;28;20061;-75
2022/03/15 12:42:52;;;;;;;21.42;14.30;;;10.90;99.90;;;;;;5010966;28;20083;-74
2022/03/15 12:45:18;;;;;;;21.17;14.43;;;10.90;99.90;;;;;;5010731;28;20034;-74